^^
Meteo Knjazevac Station Historical Data
Daily Summary for July 30, 2021 Units:  Both    English   Metric
Daily Weekly Monthly Yearly Custom
  High: Low: Average:
Temperature: 98.6 °F /  37 °C 65.3 °F /  18.5 °C 81.5 °F /  27.5 °C
Dew Point: 75.2 °F /  24 °C 63.3 °F /  17.4 °C 68.6 °F /  20.3 °C
Humidity: 94% 37% 69%
Wind Speed: 6mph /  9.7km/h - 1.5mph /  2.4km/h
Wind Gust: 10mph /  16.1km/h - -
Wind- - SSW
Pressure: 30.00 in /  1015.8 hPa 29.88 in /  1011.7 hPa -
Precipitation: 0.00 in /  0 mm    
Historical Graphs
 
 
Tabular Data for July 30, 2021
Time Temperature Dew Point Pressure Wind Wind Speed Wind Gust Humidity Rainfall Rate (Hourly) solar Conditions
00:00 72 °F /  22.2 °C 65.8 °F /  18.8 °C 29.98in /  1015.1hPa WSW 1mph /  1.6km/h 2mph /  3.2km/h 81% 0.00in /  0mm 0 W/m2
00:10 71.3 °F /  21.8 °C 65.9 °F /  18.8 °C 29.98in /  1015.1hPa Calm   2mph /  3.2km/h 83% 0.00in /  0mm 0 W/m2
00:20 70.9 °F /  21.6 °C 65.5 °F /  18.6 °C 29.99in /  1015.5hPa Calm   2mph /  3.2km/h 83% 0.00in /  0mm 0 W/m2
00:30 70.5 °F /  21.4 °C 65.4 °F /  18.6 °C 29.99in /  1015.5hPa Calm   1mph /  1.6km/h 84% 0.00in /  0mm 0 W/m2
00:40 70.2 °F /  21.2 °C 65.1 °F /  18.4 °C 29.98in /  1015.1hPa Calm   2mph /  3.2km/h 84% 0.00in /  0mm 0 W/m2
00:50 70.2 °F /  21.2 °C 65.1 °F /  18.4 °C 29.98in /  1015.1hPa WNW 1mph /  1.6km/h 2mph /  3.2km/h 84% 0.00in /  0mm 0 W/m2
01:00 70 °F /  21.1 °C 64.9 °F /  18.3 °C 29.99in /  1015.5hPa NW 1mph /  1.6km/h 2mph /  3.2km/h 84% 0.00in /  0mm 0 W/m2
01:10 69.6 °F /  20.9 °C 64.9 °F /  18.3 °C 29.99in /  1015.5hPa West 1mph /  1.6km/h 3mph /  4.8km/h 85% 0.00in /  0mm 0 W/m2
01:20 69.3 °F /  20.7 °C 64.6 °F /  18.1 °C 29.99in /  1015.5hPa Calm   2mph /  3.2km/h 85% 0.00in /  0mm 0 W/m2
01:30 69.1 °F /  20.6 °C 64.7 °F /  18.2 °C 29.99in /  1015.5hPa Calm   2mph /  3.2km/h 86% 0.00in /  0mm 0 W/m2
01:40 68.9 °F /  20.5 °C 64.5 °F /  18.1 °C 29.99in /  1015.5hPa Calm   2mph /  3.2km/h 86% 0.00in /  0mm 0 W/m2
01:50 68.5 °F /  20.3 °C 64.8 °F /  18.2 °C 29.99in /  1015.5hPa WSW 1mph /  1.6km/h 2mph /  3.2km/h 88% 0.00in /  0mm 0 W/m2
02:00 68.4 °F /  20.2 °C 64.7 °F /  18.2 °C 29.99in /  1015.5hPa Calm   2mph /  3.2km/h 88% 0.00in /  0mm 0 W/m2
02:10 68.4 °F /  20.2 °C 64.7 °F /  18.2 °C 29.99in /  1015.5hPa Calm   1mph /  1.6km/h 88% 0.00in /  0mm 0 W/m2
02:20 68.2 °F /  20.1 °C 64.5 °F /  18.1 °C 29.99in /  1015.5hPa Calm   2mph /  3.2km/h 88% 0.00in /  0mm 0 W/m2
02:30 68 °F /  20 °C 64.6 °F /  18.1 °C 29.99in /  1015.5hPa Calm   2mph /  3.2km/h 89% 0.00in /  0mm 0 W/m2
02:40 67.8 °F /  19.9 °C 64.5 °F /  18.1 °C 29.99in /  1015.5hPa Calm   1mph /  1.6km/h 89% 0.00in /  0mm 0 W/m2
02:50 67.8 °F /  19.9 °C 64.5 °F /  18.1 °C 29.99in /  1015.5hPa Calm   1mph /  1.6km/h 89% 0.00in /  0mm 0 W/m2
03:00 67.6 °F /  19.8 °C 64.3 °F /  17.9 °C 29.99in /  1015.5hPa Calm   2mph /  3.2km/h 89% 0.00in /  0mm 0 W/m2
03:10 67.5 °F /  19.7 °C 64.1 °F /  17.8 °C 29.99in /  1015.5hPa Calm   2mph /  3.2km/h 89% 0.00in /  0mm 0 W/m2
03:20 67.3 °F /  19.6 °C 64.2 °F /  17.9 °C 29.99in /  1015.5hPa Calm   2mph /  3.2km/h 90% 0.00in /  0mm 0 W/m2
03:30 66.9 °F /  19.4 °C 63.9 °F /  17.7 °C 29.99in /  1015.5hPa West 1mph /  1.6km/h 2mph /  3.2km/h 90% 0.00in /  0mm 0 W/m2
03:40 66.6 °F /  19.2 °C 63.5 °F /  17.5 °C 29.99in /  1015.5hPa Calm   2mph /  3.2km/h 90% 0.00in /  0mm 0 W/m2
03:50 66.4 °F /  19.1 °C 63.7 °F /  17.6 °C 29.99in /  1015.5hPa NW 1mph /  1.6km/h 2mph /  3.2km/h 91% 0.00in /  0mm 0 W/m2
04:00 66.2 °F /  19 °C 63.5 °F /  17.5 °C 29.99in /  1015.5hPa Calm   2mph /  3.2km/h 91% 0.00in /  0mm 0 W/m2
04:10 66.2 °F /  19 °C 63.5 °F /  17.5 °C 29.99in /  1015.5hPa Calm   4mph /  6.4km/h 91% 0.00in /  0mm 0 W/m2
04:20 66.2 °F /  19 °C 63.5 °F /  17.5 °C 29.99in /  1015.5hPa Calm   2mph /  3.2km/h 91% 0.00in /  0mm 0 W/m2
04:30 66 °F /  18.9 °C 63.3 °F /  17.4 °C 29.99in /  1015.5hPa Calm   2mph /  3.2km/h 91% 0.00in /  0mm 0 W/m2
04:40 66 °F /  18.9 °C 63.9 °F /  17.7 °C 29.99in /  1015.5hPa Calm   2mph /  3.2km/h 93% 0.00in /  0mm 0 W/m2
04:50 65.8 °F /  18.8 °C 63.8 °F /  17.7 °C 29.99in /  1015.5hPa Calm   2mph /  3.2km/h 93% 0.00in /  0mm 0 W/m2
05:00 66 °F /  18.9 °C 63.9 °F /  17.7 °C 29.99in /  1015.5hPa Calm   2mph /  3.2km/h 93% 0.00in /  0mm 0 W/m2
05:10 65.7 °F /  18.7 °C 63.6 °F /  17.6 °C 29.99in /  1015.5hPa Calm   2mph /  3.2km/h 93% 0.00in /  0mm 0 W/m2
05:20 65.7 °F /  18.7 °C 63.6 °F /  17.6 °C 29.99in /  1015.5hPa North 1mph /  1.6km/h 4mph /  6.4km/h 93% 0.00in /  0mm 4 W/m2
05:30 65.7 °F /  18.7 °C 63.6 °F /  17.6 °C 30.00in /  1015.8hPa NW 1mph /  1.6km/h 2mph /  3.2km/h 93% 0.00in /  0mm 9 W/m2
05:40 65.5 °F /  18.6 °C 63.7 °F /  17.6 °C 30.00in /  1015.8hPa Calm   2mph /  3.2km/h 94% 0.00in /  0mm 17 W/m2
05:50 65.5 °F /  18.6 °C 63.7 °F /  17.6 °C 30.00in /  1015.8hPa WSW 1mph /  1.6km/h 2mph /  3.2km/h 94% 0.00in /  0mm 28 W/m2
06:00 65.3 °F /  18.5 °C 63.5 °F /  17.5 °C 30.00in /  1015.8hPa NW 1mph /  1.6km/h 2mph /  3.2km/h 94% 0.00in /  0mm 39 W/m2
06:10 65.5 °F /  18.6 °C 63.7 °F /  17.6 °C 30.00in /  1015.8hPa Calm   3mph /  4.8km/h 94% 0.00in /  0mm 52 W/m2
06:20 65.8 °F /  18.8 °C 64 °F /  17.8 °C 30.00in /  1015.8hPa NNE 1mph /  1.6km/h 4mph /  6.4km/h 94% 0.00in /  0mm 62 W/m2
06:30 66 °F /  18.9 °C 64.2 °F /  17.9 °C 30.00in /  1015.8hPa Calm   2mph /  3.2km/h 94% 0.00in /  0mm 75 W/m2
06:40 66.4 °F /  19.1 °C 64.6 °F /  18.1 °C 30.00in /  1015.8hPa Calm   2mph /  3.2km/h 94% 0.00in /  0mm 119 W/m2
06:50 66.7 °F /  19.3 °C 64.9 °F /  18.3 °C 30.00in /  1015.8hPa Calm   2mph /  3.2km/h 94% 0.00in /  0mm 145 W/m2
07:00 67.1 °F /  19.5 °C 65 °F /  18.3 °C 30.00in /  1015.8hPa NW 1mph /  1.6km/h 3mph /  4.8km/h 93% 0.00in /  0mm 172 W/m2
07:10 67.5 °F /  19.7 °C 65.4 °F /  18.6 °C 30.00in /  1015.8hPa Calm   2mph /  3.2km/h 93% 0.00in /  0mm 203 W/m2
07:20 68 °F /  20 °C 66.2 °F /  19 °C 30.00in /  1015.8hPa WNW 1mph /  1.6km/h 2mph /  3.2km/h 94% 0.00in /  0mm 234 W/m2
07:30 68.5 °F /  20.3 °C 66.4 °F /  19.1 °C 30.00in /  1015.8hPa Calm   3mph /  4.8km/h 93% 0.00in /  0mm 268 W/m2
07:40 69.2 °F /  20.7 °C 66.5 °F /  19.2 °C 30.00in /  1015.8hPa Calm   3mph /  4.8km/h 91% 0.00in /  0mm 303 W/m2
07:50 70.2 °F /  21.2 °C 66.8 °F /  19.3 °C 30.00in /  1015.8hPa ESE 1mph /  1.6km/h 4mph /  6.4km/h 89% 0.00in /  0mm 337 W/m2
08:00 71.2 °F /  21.8 °C 66.5 °F /  19.2 °C 30.00in /  1015.8hPa SSE 1mph /  1.6km/h 6mph /  9.7km/h 85% 0.00in /  0mm 371 W/m2
08:10 72.1 °F /  22.3 °C 67 °F /  19.4 °C 30.00in /  1015.8hPa Calm   4mph /  6.4km/h 84% 0.00in /  0mm 409 W/m2
08:20 72.9 °F /  22.7 °C 66.7 °F /  19.3 °C 30.00in /  1015.8hPa ESE 3mph /  4.8km/h 5mph /  8km/h 81% 0.00in /  0mm 443 W/m2
08:30 74.1 °F /  23.4 °C 67.5 °F /  19.7 °C 30.00in /  1015.8hPa ESE 1mph /  1.6km/h 6mph /  9.7km/h 80% 0.00in /  0mm 479 W/m2
08:40 75.2 °F /  24 °C 67.9 °F /  19.9 °C 30.00in /  1015.8hPa ESE 2mph /  3.2km/h 7mph /  11.3km/h 78% 0.00in /  0mm 513 W/m2
08:50 76.3 °F /  24.6 °C 68.5 °F /  20.3 °C 30.00in /  1015.8hPa SE 2mph /  3.2km/h 5mph /  8km/h 77% 0.00in /  0mm 544 W/m2
09:00 77.7 °F /  25.4 °C 69.9 °F /  21.1 °C 30.00in /  1015.8hPa SSE 1mph /  1.6km/h 4mph /  6.4km/h 77% 0.00in /  0mm 576 W/m2
09:10 79.9 °F /  26.6 °C 70.4 °F /  21.3 °C 30.00in /  1015.8hPa SE 3mph /  4.8km/h 6mph /  9.7km/h 73% 0.00in /  0mm 608 W/m2
09:20 81.5 °F /  27.5 °C 71.6 °F /  22 °C 29.99in /  1015.5hPa ESE 1mph /  1.6km/h 8mph /  12.9km/h 72% 0.00in /  0mm 639 W/m2
09:30 82.8 °F /  28.2 °C 72 °F /  22.2 °C 29.99in /  1015.5hPa SE 2mph /  3.2km/h 7mph /  11.3km/h 70% 0.00in /  0mm 668 W/m2
09:40 84 °F /  28.9 °C 72.7 °F /  22.6 °C 30.00in /  1015.8hPa SE 2mph /  3.2km/h 7mph /  11.3km/h 69% 0.00in /  0mm 697 W/m2
09:50 85.1 °F /  29.5 °C 73.3 °F /  22.9 °C 29.99in /  1015.5hPa East 2mph /  3.2km/h 7mph /  11.3km/h 68% 0.00in /  0mm 723 W/m2
10:00 86.2 °F /  30.1 °C 73.9 °F /  23.3 °C 29.99in /  1015.5hPa ESE 2mph /  3.2km/h 6mph /  9.7km/h 67% 0.00in /  0mm 748 W/m2
10:10 86.9 °F /  30.5 °C 75.1 °F /  23.9 °C 29.99in /  1015.5hPa East 2mph /  3.2km/h 7mph /  11.3km/h 68% 0.00in /  0mm 777 W/m2
10:20 87.8 °F /  31 °C 74.6 °F /  23.7 °C 29.99in /  1015.5hPa ESE 3mph /  4.8km/h 7mph /  11.3km/h 65% 0.00in /  0mm 797 W/m2
10:30 88.5 °F /  31.4 °C 75.2 °F /  24 °C 29.99in /  1015.5hPa East 3mph /  4.8km/h 7mph /  11.3km/h 65% 0.00in /  0mm 816 W/m2
10:40 89.2 °F /  31.8 °C 75 °F /  23.9 °C 29.99in /  1015.5hPa ESE 3mph /  4.8km/h 7mph /  11.3km/h 63% 0.00in /  0mm 834 W/m2
10:50 89.8 °F /  32.1 °C 75 °F /  23.9 °C 29.98in /  1015.1hPa ENE 2mph /  3.2km/h 7mph /  11.3km/h 62% 0.00in /  0mm 255 W/m2
11:00 90.3 °F /  32.4 °C 74.5 °F /  23.6 °C 29.98in /  1015.1hPa ESE 3mph /  4.8km/h 9mph /  14.5km/h 60% 0.00in /  0mm 869 W/m2
11:10 90.7 °F /  32.6 °C 73.9 °F /  23.3 °C 29.97in /  1014.8hPa South 2mph /  3.2km/h 6mph /  9.7km/h 58% 0.00in /  0mm 882 W/m2
11:20 91.2 °F /  32.9 °C 73.9 °F /  23.3 °C 29.97in /  1014.8hPa South 2mph /  3.2km/h 5mph /  8km/h 57% 0.00in /  0mm 863 W/m2
11:30 91.8 °F /  33.2 °C 73.3 °F /  22.9 °C 29.97in /  1014.8hPa SSW 3mph /  4.8km/h 6mph /  9.7km/h 55% 0.00in /  0mm 906 W/m2
11:40 92.1 °F /  33.4 °C 73.1 °F /  22.8 °C 29.97in /  1014.8hPa SSW 2mph /  3.2km/h 6mph /  9.7km/h 54% 0.00in /  0mm 915 W/m2
11:50 92.3 °F /  33.5 °C 73.3 °F /  22.9 °C 29.97in /  1014.8hPa SW 2mph /  3.2km/h 6mph /  9.7km/h 54% 0.00in /  0mm 923 W/m2
12:00 93 °F /  33.9 °C 74.5 °F /  23.6 °C 29.96in /  1014.4hPa SSW 2mph /  3.2km/h 5mph /  8km/h 55% 0.00in /  0mm 929 W/m2
12:10 93 °F /  33.9 °C 73.9 °F /  23.3 °C 29.96in /  1014.4hPa SSW 5mph /  8km/h 8mph /  12.9km/h 54% 0.00in /  0mm 933 W/m2
12:20 93.6 °F /  34.2 °C 74.4 °F /  23.6 °C 29.96in /  1014.4hPa SSW 3mph /  4.8km/h 9mph /  14.5km/h 54% 0.00in /  0mm 936 W/m2
12:30 94.1 °F /  34.5 °C 74.9 °F /  23.8 °C 29.95in /  1014.1hPa East 2mph /  3.2km/h 6mph /  9.7km/h 54% 0.00in /  0mm 938 W/m2
12:40 94.3 °F /  34.6 °C 75.1 °F /  23.9 °C 29.95in /  1014.1hPa South 2mph /  3.2km/h 6mph /  9.7km/h 54% 0.00in /  0mm 938 W/m2
12:50 94.5 °F /  34.7 °C 74.7 °F /  23.7 °C 29.95in /  1014.1hPa South 3mph /  4.8km/h 7mph /  11.3km/h 53% 0.00in /  0mm 936 W/m2
13:00 94.6 °F /  34.8 °C 74.3 °F /  23.5 °C 29.94in /  1013.8hPa SE 1mph /  1.6km/h 6mph /  9.7km/h 52% 0.00in /  0mm 933 W/m2
13:10 94.8 °F /  34.9 °C 75 °F /  23.9 °C 29.94in /  1013.8hPa SSE 2mph /  3.2km/h 8mph /  12.9km/h 53% 0.00in /  0mm 929 W/m2
13:20 95 °F /  35 °C 75.2 °F /  24 °C 29.93in /  1013.4hPa SSE 3mph /  4.8km/h 6mph /  9.7km/h 53% 0.00in /  0mm 922 W/m2
13:30 95.2 °F /  35.1 °C 74.8 °F /  23.8 °C 29.93in /  1013.4hPa SSW 2mph /  3.2km/h 6mph /  9.7km/h 52% 0.00in /  0mm 915 W/m2
13:40 95.4 °F /  35.2 °C 73.2 °F /  22.9 °C 29.93in /  1013.4hPa WSW 3mph /  4.8km/h 6mph /  9.7km/h 49% 0.00in /  0mm 906 W/m2
13:50 95.5 °F /  35.3 °C 72.1 °F /  22.3 °C 29.93in /  1013.4hPa SW 3mph /  4.8km/h 8mph /  12.9km/h 47% 0.00in /  0mm 895 W/m2
14:00 95.7 °F /  35.4 °C 72.3 °F /  22.4 °C 29.93in /  1013.4hPa SW 1mph /  1.6km/h 8mph /  12.9km/h 47% 0.00in /  0mm 883 W/m2
14:10 96.3 °F /  35.7 °C 71.5 °F /  21.9 °C 29.92in /  1013.1hPa SSW 3mph /  4.8km/h 7mph /  11.3km/h 45% 0.00in /  0mm 869 W/m2
14:20 96.6 °F /  35.9 °C 71.8 °F /  22.1 °C 29.92in /  1013.1hPa SSW 3mph /  4.8km/h 7mph /  11.3km/h 45% 0.00in /  0mm 854 W/m2
14:30 96.8 °F /  36 °C 69.9 °F /  21.1 °C 29.92in /  1013.1hPa SSW 6mph /  9.7km/h 8mph /  12.9km/h 42% 0.00in /  0mm 838 W/m2
14:40 97 °F /  36.1 °C 67.9 °F /  19.9 °C 29.91in /  1012.8hPa SSW 3mph /  4.8km/h 7mph /  11.3km/h 39% 0.00in /  0mm 820 W/m2
14:50 97.3 °F /  36.3 °C 69 °F /  20.6 °C 29.91in /  1012.8hPa South 2mph /  3.2km/h 9mph /  14.5km/h 40% 0.00in /  0mm 801 W/m2
15:00 97.3 °F /  36.3 °C 66.7 °F /  19.3 °C 29.91in /  1012.8hPa South 3mph /  4.8km/h 10mph /  16.1km/h 37% 0.00in /  0mm 781 W/m2
15:10 97.5 °F /  36.4 °C 66.9 °F /  19.4 °C 29.91in /  1012.8hPa South 3mph /  4.8km/h 8mph /  12.9km/h 37% 0.00in /  0mm 760 W/m2
15:20 97.7 °F /  36.5 °C 67.8 °F /  19.9 °C 29.90in /  1012.4hPa SSW 2mph /  3.2km/h 6mph /  9.7km/h 38% 0.00in /  0mm 737 W/m2
15:30 97.9 °F /  36.6 °C 68 °F /  20 °C 29.90in /  1012.4hPa South 2mph /  3.2km/h 7mph /  11.3km/h 38% 0.00in /  0mm 714 W/m2
15:40 98.2 °F /  36.8 °C 68.3 °F /  20.2 °C 29.89in /  1012.1hPa South 2mph /  3.2km/h 7mph /  11.3km/h 38% 0.00in /  0mm 689 W/m2
15:50 98.2 °F /  36.8 °C 68.3 °F /  20.2 °C 29.89in /  1012.1hPa South 3mph /  4.8km/h 7mph /  11.3km/h 38% 0.00in /  0mm 659 W/m2
16:00 98.1 °F /  36.7 °C 68.1 °F /  20.1 °C 29.89in /  1012.1hPa South 5mph /  8km/h 7mph /  11.3km/h 38% 0.00in /  0mm 637 W/m2
16:10 98.3 °F /  36.8 °C 69.1 °F /  20.6 °C 29.89in /  1012.1hPa South 2mph /  3.2km/h 6mph /  9.7km/h 39% 0.00in /  0mm 607 W/m2
16:20 98 °F /  36.7 °C 68.1 °F /  20.1 °C 29.89in /  1012.1hPa SSE 2mph /  3.2km/h 7mph /  11.3km/h 38% 0.00in /  0mm 572 W/m2
16:30 98.4 °F /  36.9 °C 69.2 °F /  20.7 °C 29.89in /  1012.1hPa SW 3mph /  4.8km/h 6mph /  9.7km/h 39% 0.00in /  0mm 545 W/m2
16:40 98.6 °F /  37 °C 70.1 °F /  21.2 °C 29.89in /  1012.1hPa SW 2mph /  3.2km/h 6mph /  9.7km/h 40% 0.00in /  0mm 511 W/m2
16:50 98.6 °F /  37 °C 69.4 °F /  20.8 °C 29.89in /  1012.1hPa WSW 2mph /  3.2km/h 6mph /  9.7km/h 39% 0.00in /  0mm 476 W/m2
17:00 98.2 °F /  36.8 °C 69 °F /  20.6 °C 29.89in /  1012.1hPa WNW 3mph /  4.8km/h 7mph /  11.3km/h 39% 0.00in /  0mm 442 W/m2
17:10 98.2 °F /  36.8 °C 68.3 °F /  20.2 °C 29.88in /  1011.7hPa WNW 5mph /  8km/h 7mph /  11.3km/h 38% 0.00in /  0mm 406 W/m2
17:20 97.7 °F /  36.5 °C 67 °F /  19.4 °C 29.88in /  1011.7hPa WNW 5mph /  8km/h 9mph /  14.5km/h 37% 0.00in /  0mm 373 W/m2
17:30 97.5 °F /  36.4 °C 68.4 °F /  20.2 °C 29.88in /  1011.7hPa WNW 5mph /  8km/h 8mph /  12.9km/h 39% 0.00in /  0mm 337 W/m2
17:40 97.3 °F /  36.3 °C 69 °F /  20.6 °C 29.88in /  1011.7hPa WNW 2mph /  3.2km/h 6mph /  9.7km/h 40% 0.00in /  0mm 302 W/m2
17:50 97.2 °F /  36.2 °C 68.8 °F /  20.4 °C 29.88in /  1011.7hPa West 3mph /  4.8km/h 7mph /  11.3km/h 40% 0.00in /  0mm 268 W/m2
18:00 96.8 °F /  36 °C 69.9 °F /  21.1 °C 29.88in /  1011.7hPa West 2mph /  3.2km/h 7mph /  11.3km/h 42% 0.00in /  0mm 238 W/m2
18:10 96.4 °F /  35.8 °C 70.3 °F /  21.3 °C 29.88in /  1011.7hPa West 2mph /  3.2km/h 5mph /  8km/h 43% 0.00in /  0mm 207 W/m2
18:20 96.3 °F /  35.7 °C 70.1 °F /  21.2 °C 29.88in /  1011.7hPa WSW 2mph /  3.2km/h 5mph /  8km/h 43% 0.00in /  0mm 180 W/m2
18:30 95.9 °F /  35.5 °C 71.1 °F /  21.7 °C 29.88in /  1011.7hPa WSW 2mph /  3.2km/h 4mph /  6.4km/h 45% 0.00in /  0mm 153 W/m2
18:40 95.2 °F /  35.1 °C 72.4 °F /  22.4 °C 29.88in /  1011.7hPa WSW 2mph /  3.2km/h 4mph /  6.4km/h 48% 0.00in /  0mm 122 W/m2
18:50 94.6 °F /  34.8 °C 71.9 °F /  22.2 °C 29.88in /  1011.7hPa West 2mph /  3.2km/h 5mph /  8km/h 48% 0.00in /  0mm 97 W/m2
19:00 93.7 °F /  34.3 °C 74 °F /  23.3 °C 29.88in /  1011.7hPa SW 2mph /  3.2km/h 4mph /  6.4km/h 53% 0.00in /  0mm 75 W/m2
19:10 92.1 °F /  33.4 °C 73.6 °F /  23.1 °C 29.89in /  1012.1hPa South 1mph /  1.6km/h 4mph /  6.4km/h 55% 0.00in /  0mm 56 W/m2
19:20 90.9 °F /  32.7 °C 74 °F /  23.3 °C 29.89in /  1012.1hPa SSW 2mph /  3.2km/h 3mph /  4.8km/h 58% 0.00in /  0mm 40 W/m2
19:30 89.6 °F /  32 °C 73.3 °F /  22.9 °C 29.89in /  1012.1hPa SSW 3mph /  4.8km/h 5mph /  8km/h 59% 0.00in /  0mm 26 W/m2
19:40 88.3 °F /  31.3 °C 72.7 °F /  22.6 °C 29.89in /  1012.1hPa Calm   3mph /  4.8km/h 60% 0.00in /  0mm 16 W/m2
19:50 87.4 °F /  30.8 °C 72.8 °F /  22.7 °C 29.89in /  1012.1hPa South 1mph /  1.6km/h 3mph /  4.8km/h 62% 0.00in /  0mm 8 W/m2
20:00 86.2 °F /  30.1 °C 72.1 °F /  22.3 °C 29.90in /  1012.4hPa SW 1mph /  1.6km/h 3mph /  4.8km/h 63% 0.00in /  0mm 0 W/m2
20:10 85.2 °F /  29.6 °C 71.7 °F /  22.1 °C 29.90in /  1012.4hPa SSW 1mph /  1.6km/h 4mph /  6.4km/h 64% 0.00in /  0mm 0 W/m2
20:20 84.4 °F /  29.1 °C 70.8 °F /  21.6 °C 29.90in /  1012.4hPa Calm   3mph /  4.8km/h 64% 0.00in /  0mm 0 W/m2
20:30 83.6 °F /  28.7 °C 70.6 °F /  21.4 °C 29.91in /  1012.8hPa SW 1mph /  1.6km/h 3mph /  4.8km/h 65% 0.00in /  0mm 0 W/m2
20:40 82.6 °F /  28.1 °C 69.6 °F /  20.9 °C 29.91in /  1012.8hPa SSW 2mph /  3.2km/h 4mph /  6.4km/h 65% 0.00in /  0mm 0 W/m2
20:50 81.6 °F /  27.6 °C 69.6 °F /  20.9 °C 29.91in /  1012.8hPa SSW 2mph /  3.2km/h 4mph /  6.4km/h 67% 0.00in /  0mm 0 W/m2
21:00 80.9 °F /  27.2 °C 68.9 °F /  20.5 °C 29.92in /  1013.1hPa SW 1mph /  1.6km/h 4mph /  6.4km/h 67% 0.00in /  0mm 0 W/m2
21:10 80.2 °F /  26.8 °C 69.1 °F /  20.6 °C 29.92in /  1013.1hPa SW 2mph /  3.2km/h 3mph /  4.8km/h 69% 0.00in /  0mm 0 W/m2
21:20 79.8 °F /  26.6 °C 70.8 °F /  21.6 °C 29.92in /  1013.1hPa WSW 2mph /  3.2km/h 3mph /  4.8km/h 74% 0.00in /  0mm 0 W/m2
21:30 79.2 °F /  26.2 °C 70.2 °F /  21.2 °C 29.92in /  1013.1hPa West 1mph /  1.6km/h 3mph /  4.8km/h 74% 0.00in /  0mm 0 W/m2
21:40 78.6 °F /  25.9 °C 69.6 °F /  20.9 °C 29.93in /  1013.4hPa SW 1mph /  1.6km/h 2mph /  3.2km/h 74% 0.00in /  0mm 0 W/m2
21:50 77.9 °F /  25.5 °C 69.3 °F /  20.7 °C 29.92in /  1013.1hPa SW 2mph /  3.2km/h 3mph /  4.8km/h 75% 0.00in /  0mm 0 W/m2
22:00 77.2 °F /  25.1 °C 68.6 °F /  20.3 °C 29.93in /  1013.4hPa WSW 2mph /  3.2km/h 3mph /  4.8km/h 75% 0.00in /  0mm 0 W/m2
22:10 76.8 °F /  24.9 °C 68.3 °F /  20.2 °C 29.93in /  1013.4hPa WSW 2mph /  3.2km/h 4mph /  6.4km/h 75% 0.00in /  0mm 0 W/m2
22:20 76.3 °F /  24.6 °C 68.5 °F /  20.3 °C 29.93in /  1013.4hPa WSW 2mph /  3.2km/h 3mph /  4.8km/h 77% 0.00in /  0mm 0 W/m2
22:30 75.9 °F /  24.4 °C 68.2 °F /  20.1 °C 29.93in /  1013.4hPa WSW 1mph /  1.6km/h 4mph /  6.4km/h 77% 0.00in /  0mm 0 W/m2
22:40 75.5 °F /  24.2 °C 67.8 °F /  19.9 °C 29.93in /  1013.4hPa WSW 1mph /  1.6km/h 2mph /  3.2km/h 77% 0.00in /  0mm 0 W/m2
22:50 75 °F /  23.9 °C 67.3 °F /  19.6 °C 29.93in /  1013.4hPa WNW 1mph /  1.6km/h 2mph /  3.2km/h 77% 0.00in /  0mm 0 W/m2
23:00 74.8 °F /  23.8 °C 67.1 °F /  19.5 °C 29.93in /  1013.4hPa Calm   2mph /  3.2km/h 77% 0.00in /  0mm 0 W/m2
23:10 74.7 °F /  23.7 °C 67 °F /  19.4 °C 29.93in /  1013.4hPa Calm   2mph /  3.2km/h 77% 0.00in /  0mm 0 W/m2
23:20 74.1 °F /  23.4 °C 66.8 °F /  19.3 °C 29.93in /  1013.4hPa WSW 1mph /  1.6km/h 2mph /  3.2km/h 78% 0.00in /  0mm 0 W/m2
23:30 73.8 °F /  23.2 °C 66.8 °F /  19.3 °C 29.93in /  1013.4hPa Calm   2mph /  3.2km/h 79% 0.00in /  0mm 0 W/m2
23:40 73.4 °F /  23 °C 66.5 °F /  19.2 °C 29.93in /  1013.4hPa WNW 1mph /  1.6km/h 2mph /  3.2km/h 79% 0.00in /  0mm 0 W/m2
23:50 73.2 °F /  22.9 °C 66.3 °F /  19.1 °C 29.93in /  1013.4hPa WSW 1mph /  1.6km/h 2mph /  3.2km/h 79% 0.00in /  0mm 0 W/m2
Knjazevac, Serbia
Compliments of Weather Underground - 2 mb